sensor_id;sensor_type;location;lat;lon;timestamp;P1;durP1;ratioP1;P2;durP2;ratioP2
8466;SDS011;4270;48.148;11.648;2022-09-01T00:00:58;43.87;;;27.07;;
8466;SDS011;4270;48.148;11.648;2022-09-01T00:03:23;40.10;;;28.10;;
8466;SDS011;4270;48.148;11.648;2022-09-01T00:05:49;37.13;;;26.67;;
8466;SDS011;4270;48.148;11.648;2022-09-01T00:08:19;40.40;;;28.00;;
8466;SDS011;4270;48.148;11.648;2022-09-01T00:10:45;37.67;;;26.47;;
8466;SDS011;4270;48.148;11.648;2022-09-01T00:13:10;36.47;;;26.50;;
8466;SDS011;4270;48.148;11.648;2022-09-01T00:15:35;34.43;;;24.80;;
8466;SDS011;4270;48.148;11.648;2022-09-01T00:18:01;34.33;;;25.57;;
8466;SDS011;4270;48.148;11.648;2022-09-01T00:20:26;38.50;;;27.37;;
8466;SDS011;4270;48.148;11.648;2022-09-01T00:22:52;40.87;;;25.57;;
8466;SDS011;4270;48.148;11.648;2022-09-01T00:25:17;38.27;;;26.63;;
8466;SDS011;4270;48.148;11.648;2022-09-01T00:27:44;40.03;;;27.00;;
8466;SDS011;4270;48.148;11.648;2022-09-01T00:30:09;39.53;;;26.30;;
8466;SDS011;4270;48.148;11.648;2022-09-01T00:32:34;38.43;;;26.83;;
8466;SDS011;4270;48.148;11.648;2022-09-01T00:35:00;36.23;;;26.03;;
8466;SDS011;4270;48.148;11.648;2022-09-01T00:37:25;39.07;;;27.40;;
8466;SDS011;4270;48.148;11.648;2022-09-01T00:39:50;39.33;;;27.10;;
8466;SDS011;4270;48.148;11.648;2022-09-01T00:42:16;39.80;;;27.67;;
8466;SDS011;4270;48.148;11.648;2022-09-01T00:44:41;37.27;;;27.00;;
8466;SDS011;4270;48.148;11.648;2022-09-01T00:47:06;37.80;;;27.63;;
8466;SDS011;4270;48.148;11.648;2022-09-01T00:49:35;37.33;;;25.77;;
8466;SDS011;4270;48.148;11.648;2022-09-01T00:52:07;39.40;;;27.20;;
8466;SDS011;4270;48.148;11.648;2022-09-01T00:54:35;37.07;;;26.03;;
8466;SDS011;4270;48.148;11.648;2022-09-01T00:57:01;36.67;;;26.67;;
8466;SDS011;4270;48.148;11.648;2022-09-01T00:59:28;39.70;;;27.03;;
8466;SDS011;4270;48.148;11.648;2022-09-01T01:01:54;38.73;;;28.83;;
8466;SDS011;4270;48.148;11.648;2022-09-01T01:04:19;37.63;;;27.07;;
8466;SDS011;4270;48.148;11.648;2022-09-01T01:06:46;36.77;;;26.50;;
8466;SDS011;4270;48.148;11.648;2022-09-01T01:09:18;39.53;;;27.60;;
8466;SDS011;4270;48.148;11.648;2022-09-01T01:11:44;40.07;;;26.27;;
8466;SDS011;4270;48.148;11.648;2022-09-01T01:14:11;39.70;;;27.30;;
8466;SDS011;4270;48.148;11.648;2022-09-01T01:16:40;37.30;;;26.97;;
8466;SDS011;4270;48.148;11.648;2022-09-01T01:19:08;39.97;;;26.80;;
8466;SDS011;4270;48.148;11.648;2022-09-01T01:21:54;38.03;;;26.70;;
8466;SDS011;4270;48.148;11.648;2022-09-01T01:24:39;37.97;;;26.07;;
8466;SDS011;4270;48.148;11.648;2022-09-01T01:27:04;41.57;;;28.27;;
8466;SDS011;4270;48.148;11.648;2022-09-01T01:29:31;39.30;;;26.77;;
8466;SDS011;4270;48.148;11.648;2022-09-01T01:31:57;38.50;;;26.73;;
8466;SDS011;4270;48.148;11.648;2022-09-01T01:34:22;44.37;;;29.40;;
8466;SDS011;4270;48.148;11.648;2022-09-01T01:36:48;42.00;;;27.33;;
8466;SDS011;4270;48.148;11.648;2022-09-01T01:39:17;40.73;;;27.20;;
8466;SDS011;4270;48.148;11.648;2022-09-01T01:41:43;40.07;;;27.60;;
8466;SDS011;4270;48.148;11.648;2022-09-01T01:44:12;41.43;;;28.20;;
8466;SDS011;4270;48.148;11.648;2022-09-01T01:46:43;39.17;;;28.27;;
8466;SDS011;4270;48.148;11.648;2022-09-01T01:49:09;35.47;;;26.13;;
8466;SDS011;4270;48.148;11.648;2022-09-01T01:51:37;38.90;;;26.13;;
8466;SDS011;4270;48.148;11.648;2022-09-01T01:54:02;37.77;;;27.10;;
8466;SDS011;4270;48.148;11.648;2022-09-01T01:56:29;36.00;;;26.80;;
8466;SDS011;4270;48.148;11.648;2022-09-01T01:58:56;35.37;;;26.00;;
8466;SDS011;4270;48.148;11.648;2022-09-01T02:01:22;34.73;;;25.73;;
8466;SDS011;4270;48.148;11.648;2022-09-01T02:03:49;38.83;;;27.60;;
8466;SDS011;4270;48.148;11.648;2022-09-01T02:06:16;34.53;;;25.80;;
8466;SDS011;4270;48.148;11.648;2022-09-01T02:08:45;36.47;;;26.20;;
8466;SDS011;4270;48.148;11.648;2022-09-01T02:11:10;40.63;;;28.00;;
8466;SDS011;4270;48.148;11.648;2022-09-01T02:13:37;39.17;;;27.30;;
8466;SDS011;4270;48.148;11.648;2022-09-01T02:16:03;35.37;;;25.63;;
8466;SDS011;4270;48.148;11.648;2022-09-01T02:18:32;36.17;;;27.00;;
8466;SDS011;4270;48.148;11.648;2022-09-01T02:21:01;40.77;;;28.77;;
8466;SDS011;4270;48.148;11.648;2022-09-01T02:23:27;38.90;;;27.47;;
8466;SDS011;4270;48.148;11.648;2022-09-01T02:25:53;34.90;;;25.63;;
8466;SDS011;4270;48.148;11.648;2022-09-01T02:28:19;36.63;;;27.60;;
8466;SDS011;4270;48.148;11.648;2022-09-01T02:30:46;40.10;;;28.10;;
8466;SDS011;4270;48.148;11.648;2022-09-01T02:33:15;38.70;;;27.37;;
8466;SDS011;4270;48.148;11.648;2022-09-01T02:35:44;38.77;;;27.30;;
8466;SDS011;4270;48.148;11.648;2022-09-01T02:38:10;34.47;;;25.80;;
8466;SDS011;4270;48.148;11.648;2022-09-01T02:40:38;36.20;;;26.60;;
8466;SDS011;4270;48.148;11.648;2022-09-01T02:43:05;35.87;;;27.13;;
8466;SDS011;4270;48.148;11.648;2022-09-01T02:45:30;33.07;;;24.83;;
8466;SDS011;4270;48.148;11.648;2022-09-01T02:47:56;34.63;;;25.17;;
8466;SDS011;4270;48.148;11.648;2022-09-01T02:50:22;34.57;;;25.50;;
8466;SDS011;4270;48.148;11.648;2022-09-01T02:52:49;35.07;;;25.20;;
8466;SDS011;4270;48.148;11.648;2022-09-01T02:55:15;36.87;;;27.23;;
8466;SDS011;4270;48.148;11.648;2022-09-01T02:57:44;35.00;;;26.60;;
8466;SDS011;4270;48.148;11.648;2022-09-01T03:00:11;34.10;;;24.03;;
8466;SDS011;4270;48.148;11.648;2022-09-01T03:02:46;33.93;;;24.00;;
8466;SDS011;4270;48.148;11.648;2022-09-01T03:05:11;34.10;;;25.30;;
8466;SDS011;4270;48.148;11.648;2022-09-01T03:07:40;35.47;;;24.20;;
8466;SDS011;4270;48.148;11.648;2022-09-01T03:10:06;34.37;;;25.13;;
8466;SDS011;4270;48.148;11.648;2022-09-01T03:12:33;38.90;;;25.90;;
8466;SDS011;4270;48.148;11.648;2022-09-01T03:14:58;34.40;;;25.07;;
8466;SDS011;4270;48.148;11.648;2022-09-01T03:17:24;31.40;;;24.50;;
8466;SDS011;4270;48.148;11.648;2022-09-01T03:19:49;32.17;;;23.50;;
8466;SDS011;4270;48.148;11.648;2022-09-01T03:22:15;37.70;;;25.67;;
8466;SDS011;4270;48.148;11.648;2022-09-01T03:24:40;37.57;;;25.23;;
8466;SDS011;4270;48.148;11.648;2022-09-01T03:27:06;35.83;;;24.60;;
8466;SDS011;4270;48.148;11.648;2022-09-01T03:29:31;35.03;;;24.97;;
8466;SDS011;4270;48.148;11.648;2022-09-01T03:31:57;33.90;;;25.93;;
8466;SDS011;4270;48.148;11.648;2022-09-01T03:34:22;37.13;;;25.40;;
8466;SDS011;4270;48.148;11.648;2022-09-01T03:36:48;39.57;;;25.30;;
8466;SDS011;4270;48.148;11.648;2022-09-01T03:39:18;34.83;;;24.83;;
8466;SDS011;4270;48.148;11.648;2022-09-01T03:41:44;33.60;;;25.57;;
8466;SDS011;4270;48.148;11.648;2022-09-01T03:44:11;36.63;;;24.73;;
8466;SDS011;4270;48.148;11.648;2022-09-01T03:46:37;35.67;;;26.67;;
8466;SDS011;4270;48.148;11.648;2022-09-01T03:49:04;36.10;;;25.67;;
8466;SDS011;4270;48.148;11.648;2022-09-01T03:51:32;35.43;;;25.23;;
8466;SDS011;4270;48.148;11.648;2022-09-01T03:53:58;39.57;;;27.80;;
8466;SDS011;4270;48.148;11.648;2022-09-01T03:56:25;35.43;;;24.20;;
8466;SDS011;4270;48.148;11.648;2022-09-01T03:58:51;39.77;;;26.83;;
8466;SDS011;4270;48.148;11.648;2022-09-01T04:01:17;41.37;;;28.30;;
8466;SDS011;4270;48.148;11.648;2022-09-01T04:03:43;39.40;;;27.03;;
8466;SDS011;4270;48.148;11.648;2022-09-01T04:06:12;33.10;;;24.27;;
8466;SDS011;4270;48.148;11.648;2022-09-01T04:08:37;37.07;;;25.93;;
8466;SDS011;4270;48.148;11.648;2022-09-01T04:11:13;39.67;;;27.47;;
8466;SDS011;4270;48.148;11.648;2022-09-01T04:13:40;37.73;;;25.23;;
8466;SDS011;4270;48.148;11.648;2022-09-01T04:16:06;37.00;;;26.70;;
8466;SDS011;4270;48.148;11.648;2022-09-01T04:18:54;36.93;;;25.57;;
8466;SDS011;4270;48.148;11.648;2022-09-01T04:21:19;34.40;;;24.37;;
8466;SDS011;4270;48.148;11.648;2022-09-01T04:23:44;40.20;;;25.47;;
8466;SDS011;4270;48.148;11.648;2022-09-01T04:26:11;38.60;;;26.37;;
8466;SDS011;4270;48.148;11.648;2022-09-01T04:28:43;35.80;;;25.23;;
8466;SDS011;4270;48.148;11.648;2022-09-01T04:31:10;36.27;;;25.67;;
8466;SDS011;4270;48.148;11.648;2022-09-01T04:33:38;36.70;;;24.67;;
8466;SDS011;4270;48.148;11.648;2022-09-01T04:36:05;37.40;;;25.70;;
8466;SDS011;4270;48.148;11.648;2022-09-01T04:38:31;36.83;;;25.53;;
8466;SDS011;4270;48.148;11.648;2022-09-01T04:41:01;34.13;;;24.60;;
8466;SDS011;4270;48.148;11.648;2022-09-01T04:43:26;38.73;;;25.90;;
8466;SDS011;4270;48.148;11.648;2022-09-01T04:45:52;37.53;;;25.70;;
8466;SDS011;4270;48.148;11.648;2022-09-01T04:48:18;34.63;;;24.83;;
8466;SDS011;4270;48.148;11.648;2022-09-01T04:50:44;38.63;;;25.40;;
8466;SDS011;4270;48.148;11.648;2022-09-01T04:53:10;38.90;;;27.83;;
8466;SDS011;4270;48.148;11.648;2022-09-01T04:55:37;39.23;;;27.83;;
8466;SDS011;4270;48.148;11.648;2022-09-01T04:58:03;38.93;;;26.73;;
8466;SDS011;4270;48.148;11.648;2022-09-01T05:00:29;39.20;;;26.07;;
8466;SDS011;4270;48.148;11.648;2022-09-01T05:03:00;38.23;;;27.10;;
8466;SDS011;4270;48.148;11.648;2022-09-01T05:05:39;41.37;;;26.17;;
8466;SDS011;4270;48.148;11.648;2022-09-01T05:08:06;35.63;;;25.60;;
8466;SDS011;4270;48.148;11.648;2022-09-01T05:10:37;37.83;;;26.73;;
8466;SDS011;4270;48.148;11.648;2022-09-01T05:13:05;37.00;;;26.10;;
8466;SDS011;4270;48.148;11.648;2022-09-01T05:15:34;35.17;;;26.67;;
8466;SDS011;4270;48.148;11.648;2022-09-01T05:17:59;35.40;;;26.57;;
8466;SDS011;4270;48.148;11.648;2022-09-01T05:20:25;36.47;;;25.70;;
8466;SDS011;4270;48.148;11.648;2022-09-01T05:22:54;35.30;;;26.67;;
8466;SDS011;4270;48.148;11.648;2022-09-01T05:25:20;35.40;;;24.53;;
8466;SDS011;4270;48.148;11.648;2022-09-01T05:27:47;34.87;;;26.43;;
8466;SDS011;4270;48.148;11.648;2022-09-01T05:30:16;36.33;;;27.33;;
8466;SDS011;4270;48.148;11.648;2022-09-01T05:32:42;34.03;;;24.50;;
8466;SDS011;4270;48.148;11.648;2022-09-01T05:35:09;36.60;;;26.37;;
8466;SDS011;4270;48.148;11.648;2022-09-01T05:37:35;32.37;;;24.20;;
8466;SDS011;4270;48.148;11.648;2022-09-01T05:40:03;29.47;;;22.47;;
8466;SDS011;4270;48.148;11.648;2022-09-01T05:42:28;33.33;;;23.40;;
8466;SDS011;4270;48.148;11.648;2022-09-01T05:44:54;27.10;;;21.93;;
8466;SDS011;4270;48.148;11.648;2022-09-01T05:47:19;27.33;;;21.47;;
8466;SDS011;4270;48.148;11.648;2022-09-01T05:49:45;25.23;;;20.23;;
8466;SDS011;4270;48.148;11.648;2022-09-01T05:52:10;22.70;;;18.90;;
8466;SDS011;4270;48.148;11.648;2022-09-01T05:54:36;22.33;;;18.37;;
8466;SDS011;4270;48.148;11.648;2022-09-01T05:57:02;24.43;;;18.70;;
8466;SDS011;4270;48.148;11.648;2022-09-01T05:59:27;24.73;;;18.53;;
8466;SDS011;4270;48.148;11.648;2022-09-01T06:01:55;23.67;;;19.10;;
8466;SDS011;4270;48.148;11.648;2022-09-01T06:04:20;26.30;;;18.70;;
8466;SDS011;4270;48.148;11.648;2022-09-01T06:06:46;25.87;;;18.80;;
8466;SDS011;4270;48.148;11.648;2022-09-01T06:09:13;26.50;;;19.23;;
8466;SDS011;4270;48.148;11.648;2022-09-01T06:11:42;27.30;;;19.33;;
8466;SDS011;4270;48.148;11.648;2022-09-01T06:14:07;22.77;;;17.87;;
8466;SDS011;4270;48.148;11.648;2022-09-01T06:16:36;19.03;;;15.90;;
8466;SDS011;4270;48.148;11.648;2022-09-01T06:19:03;20.03;;;16.70;;
8466;SDS011;4270;48.148;11.648;2022-09-01T06:21:29;25.80;;;17.23;;
8466;SDS011;4270;48.148;11.648;2022-09-01T06:23:56;19.60;;;16.33;;
8466;SDS011;4270;48.148;11.648;2022-09-01T06:28:51;18.40;;;15.20;;
8466;SDS011;4270;48.148;11.648;2022-09-01T06:31:19;20.23;;;16.70;;
8466;SDS011;4270;48.148;11.648;2022-09-01T06:33:49;17.23;;;15.23;;
8466;SDS011;4270;48.148;11.648;2022-09-01T06:36:16;17.30;;;14.93;;
8466;SDS011;4270;48.148;11.648;2022-09-01T06:38:42;18.57;;;16.57;;
8466;SDS011;4270;48.148;11.648;2022-09-01T06:41:08;24.07;;;16.83;;
8466;SDS011;4270;48.148;11.648;2022-09-01T06:43:34;18.00;;;16.00;;
8466;SDS011;4270;48.148;11.648;2022-09-01T06:46:01;17.53;;;15.27;;
8466;SDS011;4270;48.148;11.648;2022-09-01T06:48:27;22.00;;;16.20;;
8466;SDS011;4270;48.148;11.648;2022-09-01T06:50:57;18.03;;;15.63;;
8466;SDS011;4270;48.148;11.648;2022-09-01T06:53:23;17.73;;;15.90;;
8466;SDS011;4270;48.148;11.648;2022-09-01T06:55:49;20.20;;;16.63;;
8466;SDS011;4270;48.148;11.648;2022-09-01T06:58:15;18.90;;;16.90;;
8466;SDS011;4270;48.148;11.648;2022-09-01T07:00:41;21.87;;;17.23;;
8466;SDS011;4270;48.148;11.648;2022-09-01T07:03:07;23.43;;;18.60;;
8466;SDS011;4270;48.148;11.648;2022-09-01T07:05:33;22.73;;;17.53;;
8466;SDS011;4270;48.148;11.648;2022-09-01T07:07:59;20.70;;;17.20;;
8466;SDS011;4270;48.148;11.648;2022-09-01T07:10:26;23.10;;;17.33;;
8466;SDS011;4270;48.148;11.648;2022-09-01T07:12:52;28.80;;;18.07;;
8466;SDS011;4270;48.148;11.648;2022-09-01T07:15:20;27.30;;;16.33;;
8466;SDS011;4270;48.148;11.648;2022-09-01T07:17:46;20.80;;;17.60;;
8466;SDS011;4270;48.148;11.648;2022-09-01T07:20:14;18.27;;;16.40;;
8466;SDS011;4270;48.148;11.648;2022-09-01T07:22:40;22.70;;;17.13;;
8466;SDS011;4270;48.148;11.648;2022-09-01T07:25:05;19.30;;;16.17;;
8466;SDS011;4270;48.148;11.648;2022-09-01T07:27:36;20.23;;;16.70;;
8466;SDS011;4270;48.148;11.648;2022-09-01T07:30:03;18.40;;;15.60;;
8466;SDS011;4270;48.148;11.648;2022-09-01T07:32:28;16.87;;;14.47;;
8466;SDS011;4270;48.148;11.648;2022-09-01T07:34:54;15.53;;;13.93;;
8466;SDS011;4270;48.148;11.648;2022-09-01T07:37:20;16.00;;;14.33;;
8466;SDS011;4270;48.148;11.648;2022-09-01T07:39:47;13.97;;;12.67;;
8466;SDS011;4270;48.148;11.648;2022-09-01T07:42:12;14.80;;;13.30;;
8466;SDS011;4270;48.148;11.648;2022-09-01T07:44:41;14.90;;;12.47;;
8466;SDS011;4270;48.148;11.648;2022-09-01T07:47:06;14.53;;;13.00;;
8466;SDS011;4270;48.148;11.648;2022-09-01T07:49:33;13.10;;;11.87;;
8466;SDS011;4270;48.148;11.648;2022-09-01T07:52:01;12.40;;;11.20;;
8466;SDS011;4270;48.148;11.648;2022-09-01T07:54:27;13.60;;;10.57;;
8466;SDS011;4270;48.148;11.648;2022-09-01T07:56:53;11.47;;;10.40;;
8466;SDS011;4270;48.148;11.648;2022-09-01T07:59:19;10.30;;;9.37;;
8466;SDS011;4270;48.148;11.648;2022-09-01T08:01:45;10.73;;;9.83;;
8466;SDS011;4270;48.148;11.648;2022-09-01T08:04:11;10.70;;;9.70;;
8466;SDS011;4270;48.148;11.648;2022-09-01T08:06:36;9.60;;;8.70;;
8466;SDS011;4270;48.148;11.648;2022-09-01T08:09:03;10.77;;;9.03;;
8466;SDS011;4270;48.148;11.648;2022-09-01T08:11:30;10.17;;;8.93;;
8466;SDS011;4270;48.148;11.648;2022-09-01T08:13:56;13.77;;;8.17;;
8466;SDS011;4270;48.148;11.648;2022-09-01T08:16:26;10.07;;;8.77;;
8466;SDS011;4270;48.148;11.648;2022-09-01T08:18:52;8.50;;;7.70;;
8466;SDS011;4270;48.148;11.648;2022-09-01T08:21:18;10.17;;;9.27;;
8466;SDS011;4270;48.148;11.648;2022-09-01T08:23:46;9.40;;;8.53;;
8466;SDS011;4270;48.148;11.648;2022-09-01T08:26:12;8.70;;;7.90;;
8466;SDS011;4270;48.148;11.648;2022-09-01T08:28:38;9.87;;;7.47;;
8466;SDS011;4270;48.148;11.648;2022-09-01T08:31:14;8.93;;;8.23;;
8466;SDS011;4270;48.148;11.648;2022-09-01T08:33:40;8.73;;;8.00;;
8466;SDS011;4270;48.148;11.648;2022-09-01T08:36:10;7.00;;;6.50;;
8466;SDS011;4270;48.148;11.648;2022-09-01T08:38:35;8.30;;;7.60;;
8466;SDS011;4270;48.148;11.648;2022-09-01T08:41:00;7.83;;;7.23;;
8466;SDS011;4270;48.148;11.648;2022-09-01T08:45:55;8.43;;;7.63;;
8466;SDS011;4270;48.148;11.648;2022-09-01T08:50:55;9.30;;;8.40;;
8466;SDS011;4270;48.148;11.648;2022-09-01T08:53:25;9.13;;;8.30;;
8466;SDS011;4270;48.148;11.648;2022-09-01T08:55:56;9.40;;;8.60;;
8466;SDS011;4270;48.148;11.648;2022-09-01T08:58:22;8.60;;;7.70;;
8466;SDS011;4270;48.148;11.648;2022-09-01T09:00:50;9.07;;;8.37;;
8466;SDS011;4270;48.148;11.648;2022-09-01T09:16:11;8.90;;;8.20;;
8466;SDS011;4270;48.148;11.648;2022-09-01T09:21:18;10.73;;;9.77;;
8466;SDS011;4270;48.148;11.648;2022-09-01T09:23:46;11.33;;;10.17;;
8466;SDS011;4270;48.148;11.648;2022-09-01T09:26:12;10.43;;;9.40;;
8466;SDS011;4270;48.148;11.648;2022-09-01T09:28:37;11.93;;;10.93;;
8466;SDS011;4270;48.148;11.648;2022-09-01T09:33:48;11.40;;;10.23;;
8466;SDS011;4270;48.148;11.648;2022-09-01T09:36:15;10.30;;;9.40;;
8466;SDS011;4270;48.148;11.648;2022-09-01T09:38:40;11.10;;;10.10;;
8466;SDS011;4270;48.148;11.648;2022-09-01T09:41:07;9.27;;;8.53;;
8466;SDS011;4270;48.148;11.648;2022-09-01T09:43:37;10.93;;;10.03;;
8466;SDS011;4270;48.148;11.648;2022-09-01T09:46:20;11.33;;;10.33;;
8466;SDS011;4270;48.148;11.648;2022-09-01T09:48:46;8.97;;;8.10;;
8466;SDS011;4270;48.148;11.648;2022-09-01T09:51:16;9.70;;;9.00;;
8466;SDS011;4270;48.148;11.648;2022-09-01T09:53:42;8.03;;;7.33;;
8466;SDS011;4270;48.148;11.648;2022-09-01T09:58:34;6.25;;;5.75;;
8466;SDS011;4270;48.148;11.648;2022-09-01T10:01:01;7.35;;;6.45;;
8466;SDS011;4270;48.148;11.648;2022-09-01T10:03:34;6.70;;;6.10;;
8466;SDS011;4270;48.148;11.648;2022-09-01T10:06:00;6.82;;;6.30;;
8466;SDS011;4270;48.148;11.648;2022-09-01T10:10:51;6.15;;;5.65;;
8466;SDS011;4270;48.148;11.648;2022-09-01T10:13:17;5.63;;;5.18;;
8466;SDS011;4270;48.148;11.648;2022-09-01T10:15:46;5.55;;;5.05;;
8466;SDS011;4270;48.148;11.648;2022-09-01T10:18:14;6.05;;;5.55;;
8466;SDS011;4270;48.148;11.648;2022-09-01T10:20:42;5.50;;;5.00;;
8466;SDS011;4270;48.148;11.648;2022-09-01T10:23:10;6.55;;;5.55;;
8466;SDS011;4270;48.148;11.648;2022-09-01T10:25:35;5.50;;;5.10;;
8466;SDS011;4270;48.148;11.648;2022-09-01T10:28:05;5.57;;;5.07;;
8466;SDS011;4270;48.148;11.648;2022-09-01T10:30:32;5.35;;;4.95;;
8466;SDS011;4270;48.148;11.648;2022-09-01T10:32:59;5.60;;;5.10;;
8466;SDS011;4270;48.148;11.648;2022-09-01T10:35:25;5.70;;;4.33;;
8466;SDS011;4270;48.148;11.648;2022-09-01T10:37:52;4.60;;;4.30;;
8466;SDS011;4270;48.148;11.648;2022-09-01T10:43:43;4.90;;;4.00;;
8466;SDS011;4270;48.148;11.648;2022-09-01T10:45:42;3.50;;;3.30;;
8466;SDS011;4270;48.148;11.648;2022-09-01T10:48:41;4.40;;;3.23;;
8466;SDS011;4270;48.148;11.648;2022-09-01T10:56:17;5.07;;;3.87;;
8466;SDS011;4270;48.148;11.648;2022-09-01T11:04:12;3.00;;;2.70;;
8466;SDS011;4270;48.148;11.648;2022-09-01T11:09:06;5.47;;;3.70;;
8466;SDS011;4270;48.148;11.648;2022-09-01T11:11:46;3.50;;;3.20;;
8466;SDS011;4270;48.148;11.648;2022-09-01T11:14:20;3.23;;;2.93;;
8466;SDS011;4270;48.148;11.648;2022-09-01T11:19:36;3.13;;;2.93;;
8466;SDS011;4270;48.148;11.648;2022-09-01T11:22:04;2.83;;;2.60;;
8466;SDS011;4270;48.148;11.648;2022-09-01T11:27:05;3.00;;;2.30;;
8466;SDS011;4270;48.148;11.648;2022-09-01T11:29:50;2.93;;;2.60;;
8466;SDS011;4270;48.148;11.648;2022-09-01T11:32:17;3.43;;;3.00;;
8466;SDS011;4270;48.148;11.648;2022-09-01T11:34:43;3.27;;;2.97;;
8466;SDS011;4270;48.148;11.648;2022-09-01T11:37:16;3.80;;;2.60;;
8466;SDS011;4270;48.148;11.648;2022-09-01T11:39:47;3.30;;;3.00;;
8466;SDS011;4270;48.148;11.648;2022-09-01T11:47:35;3.00;;;2.70;;
8466;SDS011;4270;48.148;11.648;2022-09-01T11:50:35;2.83;;;2.63;;
8466;SDS011;4270;48.148;11.648;2022-09-01T11:52:57;2.63;;;2.43;;
8466;SDS011;4270;48.148;11.648;2022-09-01T11:55:27;3.37;;;2.77;;
8466;SDS011;4270;48.148;11.648;2022-09-01T11:57:52;2.60;;;2.40;;
8466;SDS011;4270;48.148;11.648;2022-09-01T12:00:24;2.90;;;2.57;;
8466;SDS011;4270;48.148;11.648;2022-09-01T12:02:50;5.63;;;3.10;;
8466;SDS011;4270;48.148;11.648;2022-09-01T12:05:32;2.70;;;2.50;;
8466;SDS011;4270;48.148;11.648;2022-09-01T12:07:58;2.80;;;2.33;;
8466;SDS011;4270;48.148;11.648;2022-09-01T12:10:34;2.93;;;2.40;;
8466;SDS011;4270;48.148;11.648;2022-09-01T12:13:03;3.00;;;2.80;;
8466;SDS011;4270;48.148;11.648;2022-09-01T12:15:28;2.53;;;2.33;;
8466;SDS011;4270;48.148;11.648;2022-09-01T12:18:07;3.70;;;2.80;;
8466;SDS011;4270;48.148;11.648;2022-09-01T12:20:34;5.53;;;3.20;;
8466;SDS011;4270;48.148;11.648;2022-09-01T12:23:02;2.90;;;2.50;;
8466;SDS011;4270;48.148;11.648;2022-09-01T12:25:29;3.50;;;2.97;;
8466;SDS011;4270;48.148;11.648;2022-09-01T12:27:55;4.40;;;2.73;;
8466;SDS011;4270;48.148;11.648;2022-09-01T12:30:24;4.00;;;3.07;;
8466;SDS011;4270;48.148;11.648;2022-09-01T12:32:49;2.50;;;2.40;;
8466;SDS011;4270;48.148;11.648;2022-09-01T12:35:22;2.80;;;2.60;;
8466;SDS011;4270;48.148;11.648;2022-09-01T12:37:48;3.23;;;2.97;;
8466;SDS011;4270;48.148;11.648;2022-09-01T12:40:22;2.60;;;2.40;;
8466;SDS011;4270;48.148;11.648;2022-09-01T12:42:49;4.43;;;2.80;;
8466;SDS011;4270;48.148;11.648;2022-09-01T12:45:15;3.03;;;2.53;;
8466;SDS011;4270;48.148;11.648;2022-09-01T12:48:00;3.77;;;2.87;;
8466;SDS011;4270;48.148;11.648;2022-09-01T12:52:54;4.13;;;2.90;;
8466;SDS011;4270;48.148;11.648;2022-09-01T12:57:56;4.20;;;3.00;;
8466;SDS011;4270;48.148;11.648;2022-09-01T13:02:49;3.60;;;2.90;;
8466;SDS011;4270;48.148;11.648;2022-09-01T13:07:42;2.87;;;2.67;;
8466;SDS011;4270;48.148;11.648;2022-09-01T13:10:08;3.10;;;2.90;;
8466;SDS011;4270;48.148;11.648;2022-09-01T13:12:33;3.00;;;2.63;;
8466;SDS011;4270;48.148;11.648;2022-09-01T13:15:02;3.37;;;3.07;;
8466;SDS011;4270;48.148;11.648;2022-09-01T13:17:28;3.00;;;2.80;;
8466;SDS011;4270;48.148;11.648;2022-09-01T13:19:54;3.10;;;2.80;;
8466;SDS011;4270;48.148;11.648;2022-09-01T13:22:19;2.83;;;2.63;;
8466;SDS011;4270;48.148;11.648;2022-09-01T13:24:44;3.30;;;2.60;;
8466;SDS011;4270;48.148;11.648;2022-09-01T13:27:09;3.43;;;2.67;;
8466;SDS011;4270;48.148;11.648;2022-09-01T13:29:39;4.80;;;2.63;;
8466;SDS011;4270;48.148;11.648;2022-09-01T13:32:05;3.50;;;2.57;;
8466;SDS011;4270;48.148;11.648;2022-09-01T13:34:31;3.87;;;2.37;;
8466;SDS011;4270;48.148;11.648;2022-09-01T13:36:56;2.50;;;2.30;;
8466;SDS011;4270;48.148;11.648;2022-09-01T13:39:21;2.97;;;2.60;;
8466;SDS011;4270;48.148;11.648;2022-09-01T13:41:47;2.93;;;2.53;;
8466;SDS011;4270;48.148;11.648;2022-09-01T13:44:12;3.20;;;2.30;;
8466;SDS011;4270;48.148;11.648;2022-09-01T13:46:37;4.10;;;2.27;;
8466;SDS011;4270;48.148;11.648;2022-09-01T13:49:03;5.80;;;2.13;;
8466;SDS011;4270;48.148;11.648;2022-09-01T13:51:28;2.10;;;2.00;;
8466;SDS011;4270;48.148;11.648;2022-09-01T13:53:54;2.73;;;2.53;;
8466;SDS011;4270;48.148;11.648;2022-09-01T13:56:19;2.80;;;2.20;;
8466;SDS011;4270;48.148;11.648;2022-09-01T13:58:44;2.87;;;2.60;;
8466;SDS011;4270;48.148;11.648;2022-09-01T14:01:10;2.83;;;2.63;;
8466;SDS011;4270;48.148;11.648;2022-09-01T14:06:11;5.57;;;2.40;;
8466;SDS011;4270;48.148;11.648;2022-09-01T14:08:36;2.43;;;2.23;;
8466;SDS011;4270;48.148;11.648;2022-09-01T14:11:01;4.63;;;2.43;;
8466;SDS011;4270;48.148;11.648;2022-09-01T14:13:27;3.80;;;2.20;;
8466;SDS011;4270;48.148;11.648;2022-09-01T14:15:52;2.73;;;2.40;;
8466;SDS011;4270;48.148;11.648;2022-09-01T14:18:18;3.00;;;2.67;;
8466;SDS011;4270;48.148;11.648;2022-09-01T14:20:44;3.37;;;2.80;;
8466;SDS011;4270;48.148;11.648;2022-09-01T14:23:10;3.10;;;2.80;;
8466;SDS011;4270;48.148;11.648;2022-09-01T14:25:40;3.07;;;2.77;;
8466;SDS011;4270;48.148;11.648;2022-09-01T14:28:06;3.33;;;3.03;;
8466;SDS011;4270;48.148;11.648;2022-09-01T14:30:31;5.00;;;3.00;;
8466;SDS011;4270;48.148;11.648;2022-09-01T14:32:56;3.23;;;2.30;;
8466;SDS011;4270;48.148;11.648;2022-09-01T14:35:23;5.07;;;2.63;;
8466;SDS011;4270;48.148;11.648;2022-09-01T14:37:50;5.40;;;2.70;;
8466;SDS011;4270;48.148;11.648;2022-09-01T14:40:15;4.10;;;2.03;;
8466;SDS011;4270;48.148;11.648;2022-09-01T14:42:42;4.50;;;2.17;;
8466;SDS011;4270;48.148;11.648;2022-09-01T14:45:08;2.63;;;2.43;;
8466;SDS011;4270;48.148;11.648;2022-09-01T14:47:35;3.50;;;2.10;;
8466;SDS011;4270;48.148;11.648;2022-09-01T14:50:00;2.30;;;2.10;;
8466;SDS011;4270;48.148;11.648;2022-09-01T14:52:25;3.10;;;2.07;;
8466;SDS011;4270;48.148;11.648;2022-09-01T14:54:51;3.00;;;2.07;;
8466;SDS011;4270;48.148;11.648;2022-09-01T14:57:16;2.30;;;2.10;;
8466;SDS011;4270;48.148;11.648;2022-09-01T14:59:41;2.20;;;2.00;;
8466;SDS011;4270;48.148;11.648;2022-09-01T15:02:07;2.57;;;2.13;;
8466;SDS011;4270;48.148;11.648;2022-09-01T15:04:32;1.80;;;1.70;;
8466;SDS011;4270;48.148;11.648;2022-09-01T15:06:57;2.30;;;2.10;;
8466;SDS011;4270;48.148;11.648;2022-09-01T15:09:23;2.50;;;2.30;;
8466;SDS011;4270;48.148;11.648;2022-09-01T15:11:48;2.20;;;2.10;;
8466;SDS011;4270;48.148;11.648;2022-09-01T15:14:13;2.87;;;2.30;;
8466;SDS011;4270;48.148;11.648;2022-09-01T15:16:39;2.13;;;1.93;;
8466;SDS011;4270;48.148;11.648;2022-09-01T15:19:11;2.23;;;2.03;;
8466;SDS011;4270;48.148;11.648;2022-09-01T15:21:37;5.27;;;2.50;;
8466;SDS011;4270;48.148;11.648;2022-09-01T15:24:03;2.30;;;2.10;;
8466;SDS011;4270;48.148;11.648;2022-09-01T15:26:29;2.30;;;2.10;;
8466;SDS011;4270;48.148;11.648;2022-09-01T15:28:54;2.40;;;1.97;;
8466;SDS011;4270;48.148;11.648;2022-09-01T15:31:21;4.33;;;1.90;;
8466;SDS011;4270;48.148;11.648;2022-09-01T15:33:48;2.03;;;1.90;;
8466;SDS011;4270;48.148;11.648;2022-09-01T15:36:15;2.67;;;2.00;;
8466;SDS011;4270;48.148;11.648;2022-09-01T15:38:40;2.60;;;1.90;;
8466;SDS011;4270;48.148;11.648;2022-09-01T15:41:05;1.83;;;1.70;;
8466;SDS011;4270;48.148;11.648;2022-09-01T15:43:31;2.30;;;2.10;;
8466;SDS011;4270;48.148;11.648;2022-09-01T15:45:57;2.27;;;1.80;;
8466;SDS011;4270;48.148;11.648;2022-09-01T15:48:23;6.80;;;2.33;;
8466;SDS011;4270;48.148;11.648;2022-09-01T15:50:48;2.33;;;1.90;;
8466;SDS011;4270;48.148;11.648;2022-09-01T15:53:13;2.95;;;1.63;;
8466;SDS011;4270;48.148;11.648;2022-09-01T15:55:40;1.85;;;1.75;;